RJAI(METAR)
06/25 09:00
METAR RJAI 250000Z 11001KT 8000 FEW007 SCT010 BKN030 21/16 Q1018 RMK
1ST007 3ST010 6SC030 A3006=
戻る
トップページへ戻る
IMOC Co,.Ltd.